createdAt,value
2023-01-21T00:02:17.138Z,100594.75
2023-01-21T00:04:49.434Z,100590.65
2023-01-21T00:07:21.847Z,100587.20
2023-01-21T00:09:54.341Z,100584.78
2023-01-21T00:12:26.774Z,100588.64
2023-01-21T00:14:59.114Z,100593.95
2023-01-21T00:17:35.979Z,100589.17
2023-01-21T00:20:11.686Z,100585.14
2023-01-21T00:22:44.142Z,100581.79
2023-01-21T00:25:16.547Z,100575.95
2023-01-21T00:27:48.987Z,100572.34
2023-01-21T00:30:21.812Z,100571.12
2023-01-21T00:32:54.680Z,100579.52
2023-01-21T00:35:27.237Z,100584.55
2023-01-21T00:37:59.498Z,100586.11
2023-01-21T00:40:31.902Z,100577.86
2023-01-21T00:43:04.329Z,100578.88
2023-01-21T00:45:36.777Z,100581.88
2023-01-21T00:48:09.436Z,100578.66
2023-01-21T00:50:41.830Z,100577.31
2023-01-21T00:53:14.206Z,100574.92
2023-01-21T00:55:46.702Z,100567.86
2023-01-21T00:58:19.335Z,100570.90
2023-01-21T01:00:51.885Z,100580.55
2023-01-21T01:03:24.413Z,100582.50
2023-01-21T01:05:57.034Z,100589.13
2023-01-21T01:08:29.389Z,100589.79
2023-01-21T01:11:02.449Z,100584.02
2023-01-21T01:13:36.771Z,100598.56
2023-01-21T01:16:09.992Z,100603.45
2023-01-21T01:18:43.515Z,100598.85
2023-01-21T01:21:17.936Z,100600.87
2023-01-21T01:23:53.815Z,100603.73
2023-01-21T01:26:26.125Z,100601.34
2023-01-21T01:28:58.562Z,100596.82
2023-01-21T01:31:31.167Z,100598.48
2023-01-21T01:34:03.641Z,100606.65
2023-01-21T01:36:35.989Z,100607.48
2023-01-21T01:39:08.876Z,100599.29
2023-01-21T01:41:41.233Z,100589.70
2023-01-21T01:44:44.339Z,100602.57
2023-01-21T01:47:17.251Z,100609.04
2023-01-21T01:49:50.543Z,100592.70
2023-01-21T01:52:24.277Z,100592.05
2023-01-21T01:55:01.256Z,100584.85
2023-01-21T01:57:38.369Z,100588.39
2023-01-21T02:00:15.195Z,100588.08
2023-01-21T02:03:08.674Z,100588.29
2023-01-21T02:05:42.219Z,100581.79
2023-01-21T02:08:15.326Z,100590.05
2023-01-21T02:10:48.261Z,100583.76
2023-01-21T02:13:21.046Z,100581.44
2023-01-21T02:16:05.051Z,100578.19
2023-01-21T02:18:45.992Z,100577.17
2023-01-21T02:21:42.990Z,100579.92
2023-01-21T02:24:56.810Z,100574.17
2023-01-21T02:27:41.943Z,100573.38
2023-01-21T02:30:42.543Z,100563.91
2023-01-21T02:33:49.912Z,100573.39
2023-01-21T02:36:36.479Z,100580.04
2023-01-21T02:39:18.517Z,100573.20
2023-01-21T02:42:04.106Z,100563.93
2023-01-21T02:44:41.706Z,100551.75
2023-01-21T02:47:20.110Z,100548.08
2023-01-21T02:49:58.400Z,100548.59
2023-01-21T02:52:31.152Z,100553.44
2023-01-21T02:55:04.917Z,100563.77
2023-01-21T02:57:47.860Z,100557.74
2023-01-21T03:00:26.210Z,100548.82
2023-01-21T03:03:23.681Z,100554.48
2023-01-21T03:06:15.456Z,100560.55
2023-01-21T03:08:54.177Z,100559.73
2023-01-21T03:11:26.885Z,100547.48
2023-01-21T03:14:26.983Z,100548.73
2023-01-21T03:17:07.574Z,100554.76
2023-01-21T03:19:46.680Z,100551.70
2023-01-21T03:22:25.253Z,100551.02
2023-01-21T03:25:00.873Z,100542.23
2023-01-21T03:27:34.658Z,100540.37
2023-01-21T03:30:14.811Z,100530.59
2023-01-21T03:32:50.925Z,100529.98
2023-01-21T03:35:26.936Z,100521.30
2023-01-21T03:38:04.935Z,100518.86
2023-01-21T03:40:41.992Z,100520.04
2023-01-21T03:43:14.385Z,100512.71
2023-01-21T03:45:52.113Z,100504.67
2023-01-21T03:48:32.667Z,100506.94
2023-01-21T03:51:09.819Z,100514.15
2023-01-21T03:53:42.266Z,100513.21
2023-01-21T03:56:14.610Z,100513.16
2023-01-21T03:58:47.039Z,100514.75
2023-01-21T04:01:19.499Z,100506.80
2023-01-21T04:03:51.975Z,100506.80
2023-01-21T04:06:25.522Z,100507.75
2023-01-21T04:08:58.063Z,100508.30
2023-01-21T04:11:30.384Z,100499.92
2023-01-21T04:14:03.041Z,100497.52
2023-01-21T04:16:35.396Z,100495.52
2023-01-21T04:19:07.862Z,100499.69
2023-01-21T04:21:40.185Z,100500.19
2023-01-21T04:24:14.145Z,100500.35
2023-01-21T04:26:46.467Z,100501.23
2023-01-21T04:29:18.981Z,100500.23
2023-01-21T04:31:51.311Z,100501.83
2023-01-21T04:34:23.756Z,100500.65
2023-01-21T04:36:56.154Z,100508.17
2023-01-21T04:39:28.597Z,100514.14
2023-01-21T04:42:01.042Z,100514.00
2023-01-21T04:44:33.488Z,100513.68
2023-01-21T04:47:05.887Z,100512.23
2023-01-21T04:49:38.236Z,100509.88
2023-01-21T04:52:10.586Z,100505.41
2023-01-21T04:54:42.954Z,100505.98
2023-01-21T04:57:15.298Z,100502.91
2023-01-21T04:59:47.649Z,100510.27
2023-01-21T05:02:20.188Z,100506.65
2023-01-21T05:04:52.704Z,100510.89
2023-01-21T05:07:24.999Z,100510.14
2023-01-21T05:09:57.372Z,100507.39
2023-01-21T05:12:30.001Z,100499.35
2023-01-21T05:15:02.398Z,100497.70
2023-01-21T05:17:34.746Z,100499.23
2023-01-21T05:20:11.052Z,100499.34
2023-01-21T05:22:46.564Z,100500.16
2023-01-21T05:25:19.545Z,100497.67
2023-01-21T05:27:55.816Z,100497.30
2023-01-21T05:30:28.472Z,100495.98
2023-01-21T05:33:01.069Z,100494.99
2023-01-21T05:35:35.950Z,100493.52
2023-01-21T05:38:08.360Z,100489.73
2023-01-21T05:40:40.720Z,100487.32
2023-01-21T05:43:13.159Z,100491.61
2023-01-21T05:45:45.557Z,100493.16
2023-01-21T05:48:17.930Z,100485.31
2023-01-21T05:50:50.528Z,100479.73
2023-01-21T05:53:23.099Z,100480.26
2023-01-21T05:55:56.351Z,100485.57
2023-01-21T05:58:28.997Z,100485.98
2023-01-21T06:01:01.729Z,100482.02
2023-01-21T06:03:34.191Z,100483.08
2023-01-21T06:06:07.495Z,100480.34
2023-01-21T06:08:39.819Z,100477.72
2023-01-21T06:11:12.278Z,100475.89
2023-01-21T06:13:44.770Z,100473.86
2023-01-21T06:16:17.161Z,100478.37
2023-01-21T06:18:49.547Z,100483.83
2023-01-21T06:21:21.917Z,100483.73
2023-01-21T06:23:54.263Z,100484.02
2023-01-21T06:26:27.257Z,100483.81
2023-01-21T06:28:59.830Z,100485.05
2023-01-21T06:31:32.594Z,100483.31
2023-01-21T06:34:05.319Z,100485.81
2023-01-21T06:36:37.688Z,100484.06
2023-01-21T06:39:11.029Z,100478.17
2023-01-21T06:41:43.461Z,100469.27
2023-01-21T06:44:15.808Z,100465.38
2023-01-21T06:47:00.048Z,100458.42
2023-01-21T06:49:33.276Z,100452.75
2023-01-21T06:52:06.395Z,100435.05
2023-01-21T06:54:38.791Z,100429.77
2023-01-21T06:57:11.351Z,100422.52
2023-01-21T06:59:43.771Z,100412.18
2023-01-21T07:02:16.375Z,100404.20
2023-01-21T07:04:51.525Z,100405.75
2023-01-21T07:07:22.351Z,100402.70
2023-01-21T07:09:54.772Z,100401.67
2023-01-21T07:12:27.179Z,100408.77
2023-01-21T07:14:59.567Z,100406.40
2023-01-21T07:17:31.891Z,100400.85
2023-01-21T07:20:05.225Z,100395.73
2023-01-21T07:22:37.736Z,100397.33
2023-01-21T07:25:11.775Z,100393.98
2023-01-21T07:27:45.021Z,100388.23
2023-01-21T07:30:20.241Z,100387.52
2023-01-21T07:32:52.632Z,100385.11
2023-01-21T07:35:25.170Z,100386.61
2023-01-21T07:37:57.530Z,100390.42
2023-01-21T07:40:30.061Z,100391.42
2023-01-21T07:43:02.352Z,100391.84
2023-01-21T07:45:35.416Z,100384.49
2023-01-21T07:48:08.567Z,100388.02
2023-01-21T07:50:40.807Z,100382.92
2023-01-21T07:53:14.846Z,100387.66
2023-01-21T07:55:47.132Z,100377.73
2023-01-21T07:58:19.535Z,100380.94
2023-01-21T08:00:51.909Z,100385.96
2023-01-21T08:03:25.356Z,100391.31
2023-01-21T08:05:57.842Z,100397.02
2023-01-21T08:08:30.333Z,100401.52
2023-01-21T08:11:02.659Z,100403.84
2023-01-21T08:13:35.053Z,100404.15
2023-01-21T08:16:11.710Z,100406.79
2023-01-21T08:18:44.176Z,100405.18
2023-01-21T08:21:16.600Z,100407.33
2023-01-21T08:23:49.206Z,100411.67
2023-01-21T08:26:23.028Z,100419.05
2023-01-21T08:28:57.492Z,100416.95
2023-01-21T08:31:29.868Z,100418.23
2023-01-21T08:34:02.312Z,100422.92
2023-01-21T08:36:34.886Z,100421.95
2023-01-21T08:39:08.308Z,100425.08
2023-01-21T08:41:41.472Z,100428.68
2023-01-21T08:44:13.923Z,100423.90
2023-01-21T08:46:46.275Z,100424.04
2023-01-21T08:49:18.726Z,100422.92
2023-01-21T08:51:51.578Z,100424.52
2023-01-21T08:54:23.934Z,100423.83
2023-01-21T08:56:56.914Z,100419.31
2023-01-21T08:59:30.259Z,100423.86
2023-01-21T09:02:02.735Z,100421.35
2023-01-21T09:04:35.577Z,100415.58
2023-01-21T09:07:07.893Z,100423.06
2023-01-21T09:09:40.315Z,100425.02
2023-01-21T09:12:12.713Z,100423.80
2023-01-21T09:14:45.293Z,100427.66
2023-01-21T09:17:17.619Z,100423.34
2023-01-21T09:19:50.107Z,100430.81
2023-01-21T09:22:22.412Z,100423.12
2023-01-21T09:24:54.810Z,100432.66
2023-01-21T09:27:28.306Z,100436.31
2023-01-21T09:30:00.785Z,100437.03
2023-01-21T09:32:33.285Z,100435.23
2023-01-21T09:35:06.211Z,100438.39
2023-01-21T09:37:38.673Z,100434.53
2023-01-21T09:40:17.499Z,100434.63
2023-01-21T09:42:49.920Z,100434.09
2023-01-21T09:45:23.421Z,100434.16
2023-01-21T09:47:56.849Z,100434.77
2023-01-21T09:50:29.475Z,100430.88
2023-01-21T09:53:15.695Z,100438.66
2023-01-21T09:55:50.499Z,100438.06
2023-01-21T09:58:31.013Z,100435.36
2023-01-21T10:01:09.405Z,100434.17
2023-01-21T10:03:51.605Z,100436.87
2023-01-21T10:06:39.927Z,100436.22
2023-01-21T10:09:28.712Z,100434.87
2023-01-21T10:12:14.866Z,100433.10
2023-01-21T10:15:06.019Z,100433.11
2023-01-21T10:17:52.195Z,100432.73
2023-01-21T10:20:28.937Z,100429.88
2023-01-21T10:23:07.396Z,100424.78
2023-01-21T10:25:40.965Z,100422.34
2023-01-21T10:28:20.857Z,100417.55
2023-01-21T10:30:55.283Z,100423.41
2023-01-21T10:33:29.190Z,100420.05
2023-01-21T10:36:18.715Z,100422.66
2023-01-21T10:39:02.738Z,100422.78
2023-01-21T10:41:55.002Z,100417.58
2023-01-21T10:44:36.178Z,100423.15
2023-01-21T10:47:15.422Z,100419.65
2023-01-21T10:50:00.341Z,100423.05
2023-01-21T10:52:39.974Z,100420.25
2023-01-21T10:55:28.791Z,100423.14
2023-01-21T10:58:04.942Z,100424.95
2023-01-21T11:00:43.179Z,100426.91
2023-01-21T11:03:21.316Z,100432.76
2023-01-21T11:05:53.761Z,100437.08
2023-01-21T11:08:27.571Z,100435.61
2023-01-21T11:11:00.740Z,100438.36
2023-01-21T11:13:33.339Z,100430.88
2023-01-21T11:16:06.236Z,100430.16
2023-01-21T11:18:41.822Z,100428.08
2023-01-21T11:21:20.349Z,100429.00
2023-01-21T11:23:58.011Z,100429.33
2023-01-21T11:26:32.125Z,100427.09
2023-01-21T11:29:16.743Z,100430.90
2023-01-21T11:31:51.778Z,100427.33
2023-01-21T11:34:25.325Z,100431.46
2023-01-21T11:37:04.134Z,100435.15
2023-01-21T11:39:40.112Z,100439.41
2023-01-21T11:42:17.210Z,100432.45
2023-01-21T11:44:55.916Z,100442.55
2023-01-21T11:47:39.272Z,100441.96
2023-01-21T11:50:24.821Z,100443.10
2023-01-21T11:53:11.576Z,100449.50
2023-01-21T11:55:46.911Z,100450.13
2023-01-21T11:58:23.660Z,100453.86
2023-01-21T12:00:58.203Z,100456.22
2023-01-21T12:03:35.891Z,100459.08
2023-01-21T12:06:10.909Z,100456.48
2023-01-21T12:08:45.353Z,100453.96
2023-01-21T12:11:22.906Z,100456.98
2023-01-21T12:14:00.788Z,100455.64
2023-01-21T12:16:38.953Z,100461.38
2023-01-21T12:19:28.460Z,100461.73
2023-01-21T12:22:24.793Z,100468.36
2023-01-21T12:25:08.908Z,100465.13
2023-01-21T12:27:52.225Z,100466.22
2023-01-21T12:30:33.879Z,100468.67
2023-01-21T12:33:12.693Z,100469.79
2023-01-21T12:35:50.512Z,100476.48
2023-01-21T12:38:27.136Z,100476.63
2023-01-21T12:41:05.985Z,100476.88
2023-01-21T12:43:43.336Z,100476.73
2023-01-21T12:46:19.643Z,100476.42
2023-01-21T12:48:58.723Z,100477.45
2023-01-21T12:51:35.417Z,100478.14
2023-01-21T12:54:17.547Z,100483.48
2023-01-21T12:56:56.456Z,100490.52
2023-01-21T12:59:34.685Z,100492.52
2023-01-21T13:02:20.262Z,100499.52
2023-01-21T13:04:55.174Z,100492.70
2023-01-21T13:07:41.562Z,100492.96
2023-01-21T13:10:20.732Z,100502.92
2023-01-21T13:12:59.532Z,100510.96
2023-01-21T13:15:36.405Z,100514.45
2023-01-21T13:18:16.549Z,100516.58
2023-01-21T13:20:54.622Z,100515.23
2023-01-21T13:23:35.477Z,100521.15
2023-01-21T13:26:17.645Z,100530.55
2023-01-21T13:28:57.066Z,100542.11
2023-01-21T13:31:36.205Z,100545.16
2023-01-21T13:34:17.049Z,100548.33
2023-01-21T13:37:11.023Z,100552.05
2023-01-21T13:39:51.894Z,100554.68
2023-01-21T13:42:38.854Z,100556.73
2023-01-21T13:45:22.374Z,100558.39
2023-01-21T13:48:22.302Z,100562.55
2023-01-21T13:51:08.987Z,100565.13
2023-01-21T13:54:12.574Z,100560.10
2023-01-21T13:57:14.568Z,100568.88
2023-01-21T13:59:52.013Z,100574.83
2023-01-21T14:02:30.913Z,100580.31
2023-01-21T14:05:10.243Z,100583.23
2023-01-21T14:07:46.227Z,100586.03
2023-01-21T14:10:31.765Z,100591.52
2023-01-21T14:13:20.464Z,100592.48
2023-01-21T14:16:11.538Z,100597.17
2023-01-21T14:19:17.638Z,100601.02
2023-01-21T14:22:07.781Z,100608.05
2023-01-21T14:24:55.717Z,100608.45
2023-01-21T14:27:35.488Z,100613.36
2023-01-21T14:30:15.985Z,100610.62
2023-01-21T14:32:51.909Z,100610.41
2023-01-21T14:35:28.805Z,100613.88
2023-01-21T14:38:14.897Z,100615.85
2023-01-21T14:40:52.193Z,100620.52
2023-01-21T14:43:50.540Z,100621.48
2023-01-21T14:46:34.990Z,100621.96
2023-01-21T14:49:09.361Z,100624.02
2023-01-21T14:51:49.673Z,100630.84
2023-01-21T14:54:27.082Z,100632.38
2023-01-21T14:57:13.863Z,100636.72
2023-01-21T14:59:51.050Z,100640.29
2023-01-21T15:02:31.803Z,100642.66
2023-01-21T15:05:16.715Z,100647.31
2023-01-21T15:07:59.682Z,100645.62
2023-01-21T15:10:35.948Z,100651.77
2023-01-21T15:13:25.475Z,100656.73
2023-01-21T15:16:15.175Z,100656.60
2023-01-21T15:19:05.677Z,100659.98
2023-01-21T15:21:44.578Z,100663.30
2023-01-21T15:24:26.264Z,100665.19
2023-01-21T15:27:22.113Z,100671.44
2023-01-21T15:30:33.640Z,100674.73
2023-01-21T15:33:13.715Z,100681.34
2023-01-21T15:35:46.470Z,100685.83
2023-01-21T15:38:19.840Z,100691.33
2023-01-21T15:40:58.183Z,100690.50
2023-01-21T15:43:37.310Z,100695.73
2023-01-21T15:46:26.192Z,100695.36
2023-01-21T15:49:17.032Z,100699.81
2023-01-21T15:52:01.996Z,100699.88
2023-01-21T15:54:41.330Z,100702.81
2023-01-21T15:57:33.724Z,100709.11
2023-01-21T16:00:26.244Z,100713.80
2023-01-21T16:03:03.595Z,100719.85
2023-01-21T16:05:48.691Z,100726.29
2023-01-21T16:08:35.928Z,100730.34
2023-01-21T16:11:24.157Z,100737.87
2023-01-21T16:14:09.267Z,100742.02
2023-01-21T16:16:55.186Z,100750.13
2023-01-21T16:19:31.856Z,100752.88
2023-01-21T16:22:07.750Z,100758.35
2023-01-21T16:24:45.164Z,100762.76
2023-01-21T16:27:23.930Z,100767.35
2023-01-21T16:30:00.629Z,100770.37
2023-01-21T16:32:33.723Z,100771.77
2023-01-21T16:35:07.626Z,100773.42
2023-01-21T16:37:41.851Z,100781.04
2023-01-21T16:40:31.152Z,100785.20
2023-01-21T16:43:19.126Z,100788.89
2023-01-21T16:45:56.647Z,100792.42
2023-01-21T16:48:32.168Z,100795.06
2023-01-21T16:51:05.061Z,100794.55
2023-01-21T16:53:37.504Z,100799.35
2023-01-21T16:56:27.337Z,100799.71
2023-01-21T16:58:59.682Z,100802.82
2023-01-21T17:01:32.975Z,100806.33
2023-01-21T17:04:05.604Z,100809.30
2023-01-21T17:06:38.362Z,100815.88
2023-01-21T17:09:24.805Z,100817.49
2023-01-21T17:11:59.391Z,100825.03
2023-01-21T17:14:33.920Z,100833.02
2023-01-21T17:17:09.713Z,100833.72
2023-01-21T17:19:44.367Z,100836.86
2023-01-21T17:22:20.716Z,100834.13
2023-01-21T17:25:04.458Z,100833.38
2023-01-21T17:27:39.255Z,100841.95
2023-01-21T17:30:32.933Z,100851.16
2023-01-21T17:33:05.837Z,100853.79
2023-01-21T17:35:38.315Z,100861.27
2023-01-21T17:38:31.168Z,100862.69
2023-01-21T17:41:08.232Z,100870.33
2023-01-21T17:43:48.920Z,100873.61
2023-01-21T17:46:23.129Z,100875.54
2023-01-21T17:48:59.448Z,100878.59
2023-01-21T17:51:32.984Z,100882.66
2023-01-21T17:54:09.573Z,100888.89
2023-01-21T17:56:49.455Z,100888.67
2023-01-21T17:59:38.089Z,100897.41
2023-01-21T18:02:14.318Z,100904.27
2023-01-21T18:04:46.947Z,100907.07
2023-01-21T18:07:25.040Z,100908.83
2023-01-21T18:10:00.523Z,100911.55
2023-01-21T18:12:32.924Z,100919.70
2023-01-21T18:15:05.521Z,100920.86
2023-01-21T18:17:46.681Z,100926.02
2023-01-21T18:20:21.882Z,100929.47
2023-01-21T18:22:55.957Z,100932.84
2023-01-21T18:25:29.584Z,100932.20
2023-01-21T18:28:02.109Z,100935.60
2023-01-21T18:30:34.618Z,100940.30
2023-01-21T18:33:07.007Z,100940.44
2023-01-21T18:35:39.893Z,100938.73
2023-01-21T18:38:15.542Z,100942.52
2023-01-21T18:40:48.376Z,100947.02
2023-01-21T18:43:20.722Z,100948.59
2023-01-21T18:45:54.455Z,100953.27
2023-01-21T18:48:30.314Z,100953.84
2023-01-21T18:51:02.748Z,100955.15
2023-01-21T18:53:35.182Z,100960.45
2023-01-21T18:56:11.205Z,100960.19
2023-01-21T18:58:44.062Z,100963.63
2023-01-21T19:01:23.363Z,100965.48
2023-01-21T19:03:57.170Z,100968.24
2023-01-21T19:06:29.517Z,100971.41
2023-01-21T19:09:01.923Z,100973.10
2023-01-21T19:11:34.339Z,100975.70
2023-01-21T19:14:06.710Z,100981.33
2023-01-21T19:16:40.121Z,100982.39
2023-01-21T19:19:16.159Z,100981.16
2023-01-21T19:21:48.595Z,100992.52
2023-01-21T19:24:20.999Z,100994.68
2023-01-21T19:26:53.367Z,100994.96
2023-01-21T19:29:28.525Z,100992.87
2023-01-21T19:32:00.968Z,100996.30
2023-01-21T19:34:33.399Z,100996.96
2023-01-21T19:37:06.236Z,101004.73
2023-01-21T19:39:38.657Z,101006.13
2023-01-21T19:42:13.131Z,101009.59
2023-01-21T19:44:45.540Z,101014.51
2023-01-21T19:47:23.611Z,101016.55
2023-01-21T19:49:56.017Z,101019.70
2023-01-21T19:52:28.437Z,101023.36
2023-01-21T19:55:00.729Z,101024.73
2023-01-21T19:57:33.850Z,101030.56
2023-01-21T20:00:15.706Z,101037.23
2023-01-21T20:02:48.387Z,101040.73
2023-01-21T20:05:21.614Z,101042.23
2023-01-21T20:07:54.632Z,101046.39
2023-01-21T20:10:29.070Z,101048.56
2023-01-21T20:13:01.395Z,101052.89
2023-01-21T20:15:35.481Z,101057.50
2023-01-21T20:18:12.548Z,101059.05
2023-01-21T20:20:45.024Z,101064.81
2023-01-21T20:23:18.913Z,101069.15
2023-01-21T20:25:53.629Z,101075.54
2023-01-21T20:28:28.318Z,101081.67
2023-01-21T20:31:02.705Z,101084.04
2023-01-21T20:33:36.012Z,101088.74
2023-01-21T20:36:17.739Z,101092.58
2023-01-21T20:38:50.266Z,101097.65
2023-01-21T20:41:22.747Z,101101.16
2023-01-21T20:43:55.111Z,101101.92
2023-01-21T20:46:30.767Z,101107.48
2023-01-21T20:49:03.469Z,101107.18
2023-01-21T20:51:35.873Z,101110.25
2023-01-21T20:54:08.471Z,101114.59
2023-01-21T20:56:40.965Z,101109.32
2023-01-21T20:59:14.780Z,101112.48
2023-01-21T21:01:48.928Z,101120.25
2023-01-21T21:04:21.783Z,101118.82
2023-01-21T21:06:54.159Z,101120.11
2023-01-21T21:09:26.708Z,101122.02
2023-01-21T21:11:59.200Z,101123.05
2023-01-21T21:14:31.814Z,101124.92
2023-01-21T21:17:04.126Z,101127.94
2023-01-21T21:19:36.540Z,101129.23
2023-01-21T21:22:08.911Z,101132.80
2023-01-21T21:24:41.505Z,101141.45
2023-01-21T21:27:14.658Z,101147.20
2023-01-21T21:29:47.038Z,101145.60
2023-01-21T21:32:19.453Z,101147.23
2023-01-21T21:34:55.266Z,101150.73
2023-01-21T21:37:27.679Z,101156.41
2023-01-21T21:40:00.441Z,101153.61
2023-01-21T21:42:50.736Z,101155.89
2023-01-21T21:45:23.248Z,101154.16
2023-01-21T21:48:13.672Z,101154.17
2023-01-21T21:50:46.113Z,101155.91
2023-01-21T21:53:18.595Z,101161.97
2023-01-21T21:55:51.174Z,101164.92
2023-01-21T21:58:23.596Z,101172.59
2023-01-21T22:00:56.148Z,101175.14
2023-01-21T22:03:28.677Z,101177.27
2023-01-21T22:06:04.000Z,101179.02
2023-01-21T22:08:37.901Z,101179.96
2023-01-21T22:11:14.125Z,101175.52
2023-01-21T22:13:50.370Z,101184.23
2023-01-21T22:16:25.539Z,101184.75
2023-01-21T22:18:59.911Z,101187.80
2023-01-21T22:21:34.110Z,101193.26
2023-01-21T22:24:08.338Z,101194.77
2023-01-21T22:26:41.307Z,101195.13
2023-01-21T22:29:14.451Z,101196.73
2023-01-21T22:31:47.024Z,101199.66
2023-01-21T22:34:19.655Z,101205.39
2023-01-21T22:36:52.897Z,101205.39
2023-01-21T22:39:25.346Z,101206.27
2023-01-21T22:42:00.292Z,101207.98
2023-01-21T22:44:32.661Z,101209.65
2023-01-21T22:47:05.001Z,101211.84
2023-01-21T22:49:37.407Z,101215.55
2023-01-21T22:52:09.877Z,101219.42
2023-01-21T22:54:42.324Z,101220.34
2023-01-21T22:57:14.749Z,101221.57
2023-01-21T22:59:47.172Z,101224.77
2023-01-21T23:02:19.854Z,101221.89
2023-01-21T23:04:52.386Z,101224.27
2023-01-21T23:07:24.794Z,101225.87
2023-01-21T23:09:57.587Z,101228.64
2023-01-21T23:12:30.034Z,101228.90
2023-01-21T23:15:02.439Z,101231.63
2023-01-21T23:17:34.966Z,101228.30
2023-01-21T23:20:09.174Z,101227.39
2023-01-21T23:22:41.784Z,101228.41
2023-01-21T23:25:17.855Z,101230.22
2023-01-21T23:27:50.192Z,101230.80
2023-01-21T23:30:22.842Z,101227.73
2023-01-21T23:32:55.213Z,101232.38
2023-01-21T23:35:28.074Z,101232.45
2023-01-21T23:38:00.449Z,101241.91
2023-01-21T23:40:32.901Z,101246.73
2023-01-21T23:43:05.323Z,101249.08
2023-01-21T23:45:39.311Z,101251.19
2023-01-21T23:48:12.140Z,101257.65
2023-01-21T23:50:44.488Z,101257.86
2023-01-21T23:53:16.876Z,101262.17
2023-01-21T23:55:49.216Z,101263.34
2023-01-21T23:58:21.505Z,101266.15
